createdAt,value
2022-11-24T00:01:29.250Z,26.50
2022-11-24T00:06:27.964Z,28.30
2022-11-24T00:11:29.350Z,27.20
2022-11-24T00:16:30.265Z,28.90
2022-11-24T00:21:29.083Z,27.70
2022-11-24T00:26:29.125Z,27.70
2022-11-24T00:31:28.987Z,30.40
2022-11-24T00:36:29.616Z,29.70
2022-11-24T00:41:28.264Z,28.20
2022-11-24T00:46:28.398Z,28.40
2022-11-24T00:51:29.253Z,29.90
2022-11-24T00:56:28.918Z,31.20
2022-11-24T01:01:29.242Z,32.20
2022-11-24T01:06:27.924Z,31.30
2022-11-24T01:11:29.168Z,32.00
2022-11-24T01:16:30.510Z,33.40
2022-11-24T01:21:26.817Z,33.10
2022-11-24T01:26:26.836Z,28.70
2022-11-24T01:31:27.498Z,29.10
2022-11-24T01:36:26.856Z,27.80
2022-11-24T01:41:26.933Z,29.10
2022-11-24T01:46:33.134Z,27.10
2022-11-24T01:51:31.955Z,26.80
2022-11-24T01:56:27.751Z,26.10
2022-11-24T02:01:28.453Z,26.10
2022-11-24T02:06:30.890Z,26.90
2022-11-24T02:11:32.404Z,27.80
2022-11-24T02:16:28.682Z,26.50
2022-11-24T02:21:27.358Z,23.90
2022-11-24T02:26:30.369Z,23.50
2022-11-24T02:31:27.952Z,23.10
2022-11-24T02:36:27.044Z,23.70
2022-11-24T02:41:27.467Z,20.60
2022-11-24T02:46:27.936Z,19.70
2022-11-24T02:51:27.342Z,21.40
2022-11-24T02:56:27.106Z,19.60
2022-11-24T03:01:27.556Z,18.80
2022-11-24T03:06:26.636Z,18.40
2022-11-24T03:11:26.773Z,19.20
2022-11-24T03:16:26.931Z,17.90
2022-11-24T03:21:27.008Z,17.60
2022-11-24T03:26:26.931Z,18.00
2022-11-24T03:31:27.983Z,18.60
2022-11-24T03:36:26.626Z,17.00
2022-11-24T03:41:27.209Z,18.00
2022-11-24T03:46:26.796Z,17.30
2022-11-24T03:51:26.784Z,17.70
2022-11-24T03:56:27.020Z,17.30
2022-11-24T04:01:26.826Z,18.40
2022-11-24T04:06:26.666Z,17.50
2022-11-24T04:11:36.567Z,18.30
2022-11-24T04:16:26.864Z,18.60
2022-11-24T04:21:26.626Z,18.30
2022-11-24T04:26:26.942Z,17.90
2022-11-24T04:31:27.128Z,18.30
2022-11-24T04:36:26.581Z,17.30
2022-11-24T04:41:26.742Z,18.10
2022-11-24T04:46:27.308Z,17.20
2022-11-24T04:51:26.662Z,17.80
2022-11-24T04:56:26.740Z,17.70
2022-11-24T05:01:27.664Z,17.00
2022-11-24T05:06:26.568Z,17.20
2022-11-24T05:11:26.539Z,17.80
2022-11-24T05:16:27.146Z,18.00
2022-11-24T05:21:27.127Z,17.90
2022-11-24T05:26:26.902Z,74.90
2022-11-24T05:31:26.926Z,23.90
2022-11-24T05:36:36.537Z,24.50
2022-11-24T05:41:26.498Z,33.50
2022-11-24T05:46:27.372Z,22.50
2022-11-24T05:51:26.640Z,32.80
2022-11-24T05:56:26.802Z,24.80
2022-11-24T06:01:27.122Z,21.50
2022-11-24T06:06:26.574Z,21.80
2022-11-24T06:11:26.871Z,21.00
2022-11-24T06:16:26.955Z,22.00
2022-11-24T06:21:27.053Z,24.10
2022-11-24T06:26:28.168Z,21.40
2022-11-24T06:31:26.707Z,23.60
2022-11-24T06:36:27.172Z,22.40
2022-11-24T06:41:26.646Z,25.70
2022-11-24T06:46:26.749Z,22.00
2022-11-24T06:51:26.859Z,22.20
2022-11-24T06:56:27.195Z,22.90
2022-11-24T07:01:28.906Z,22.50
2022-11-24T07:06:27.469Z,20.50
2022-11-24T07:11:26.504Z,23.50
2022-11-24T07:16:27.239Z,21.00
2022-11-24T07:21:28.355Z,18.80
2022-11-24T07:26:26.712Z,17.30
2022-11-24T07:31:27.007Z,20.30
2022-11-24T07:36:26.594Z,17.60
2022-11-24T07:41:26.776Z,16.70
2022-11-24T07:46:26.793Z,17.10
2022-11-24T07:51:26.404Z,17.10
2022-11-24T07:56:26.692Z,15.90
2022-11-24T08:01:26.944Z,16.90
2022-11-24T08:06:33.860Z,14.60
2022-11-24T08:11:27.132Z,15.80
2022-11-24T08:16:26.779Z,16.30
2022-11-24T08:21:26.459Z,15.30
2022-11-24T08:26:26.776Z,22.10
2022-11-24T08:31:32.249Z,21.60
2022-11-24T08:36:26.430Z,15.70
2022-11-24T08:41:27.502Z,15.30
2022-11-24T08:46:27.212Z,17.60
2022-11-24T08:51:26.989Z,17.20
2022-11-24T08:56:27.655Z,22.50
2022-11-24T09:01:27.238Z,16.10
2022-11-24T09:06:29.948Z,17.80
2022-11-24T09:11:28.028Z,18.50
2022-11-24T09:16:28.174Z,16.60
2022-11-24T09:21:26.965Z,17.20
2022-11-24T09:26:28.649Z,17.90
2022-11-24T09:31:29.413Z,17.40
2022-11-24T09:36:26.519Z,17.80
2022-11-24T09:41:37.822Z,17.00
2022-11-24T09:46:31.962Z,17.00
2022-11-24T09:51:30.084Z,18.80
2022-11-24T09:56:28.409Z,17.60
2022-11-24T10:01:30.162Z,18.70
2022-11-24T10:06:30.263Z,19.40
2022-11-24T10:11:35.708Z,20.10
2022-11-24T10:16:07.134Z,20.00
2022-11-24T10:20:30.690Z,20.70
2022-11-24T10:25:24.649Z,21.00
2022-11-24T10:30:22.999Z,51.20
2022-11-24T10:35:21.758Z,30.70
2022-11-24T10:40:55.318Z,70.80
2022-11-24T10:45:21.939Z,25.70
2022-11-24T10:50:21.898Z,40.40
2022-11-24T10:55:21.731Z,22.50
2022-11-24T11:00:31.060Z,29.10
2022-11-24T11:05:40.791Z,28.70
2022-11-24T11:10:22.392Z,45.40
2022-11-24T11:15:22.083Z,83.30
2022-11-24T11:20:27.149Z,140.20
2022-11-24T11:25:23.053Z,57.90
2022-11-24T11:35:20.450Z,68.90
2022-11-24T11:40:27.052Z,32.50
2022-11-24T11:45:24.351Z,95.60
2022-11-24T11:50:24.895Z,32.20
2022-11-24T11:55:32.847Z,26.00
2022-11-24T12:00:21.404Z,26.80
2022-11-24T12:05:29.072Z,136.00
2022-11-24T12:10:29.276Z,39.70
2022-11-24T12:15:25.755Z,105.30
2022-11-24T12:20:36.515Z,85.00
2022-11-24T12:25:26.290Z,38.50
2022-11-24T12:30:21.483Z,72.00
2022-11-24T12:35:27.055Z,40.50
2022-11-24T12:40:34.472Z,30.00
2022-11-24T12:45:29.763Z,38.50
2022-11-24T12:50:23.517Z,28.60
2022-11-24T12:55:22.102Z,62.90
2022-11-24T13:00:21.950Z,54.40
2022-11-24T13:05:27.704Z,39.50
2022-11-24T13:10:54.179Z,66.70
2022-11-24T13:15:44.595Z,41.20
2022-11-24T13:20:24.698Z,66.50
2022-11-24T13:25:22.545Z,52.10
2022-11-24T13:30:39.148Z,60.40
2022-11-24T13:35:19.438Z,39.40
2022-11-24T13:40:41.043Z,41.40
2022-11-24T13:45:39.193Z,47.00
2022-11-24T13:50:22.619Z,30.40
2022-11-24T13:55:24.624Z,35.40
2022-11-24T14:00:22.006Z,44.40
2022-11-24T14:05:26.211Z,66.50
2022-11-24T14:10:26.547Z,74.00
2022-11-24T14:15:24.007Z,51.80
2022-11-24T14:20:24.253Z,45.90
2022-11-24T14:25:29.212Z,63.90
2022-11-24T14:30:21.846Z,40.60
2022-11-24T14:35:23.012Z,78.70
2022-11-24T14:40:37.198Z,97.50
2022-11-24T14:45:19.286Z,97.50
2022-11-24T14:50:22.715Z,62.30
2022-11-24T14:55:23.868Z,43.10
2022-11-24T15:00:26.525Z,51.40
2022-11-24T15:05:21.208Z,42.10
2022-11-24T15:10:33.295Z,48.00
2022-11-24T15:15:23.198Z,43.00
2022-11-24T15:20:26.475Z,88.10
2022-11-24T15:25:25.423Z,72.50
2022-11-24T15:30:19.357Z,66.60
2022-11-24T15:35:22.902Z,43.90
2022-11-24T15:40:20.435Z,80.40
2022-11-24T15:45:21.328Z,55.30
2022-11-24T15:50:19.593Z,38.20
2022-11-24T15:55:21.350Z,32.60
2022-11-24T16:00:21.045Z,31.20
2022-11-24T16:05:19.569Z,42.00
2022-11-24T16:10:25.377Z,34.80
2022-11-24T16:15:19.397Z,48.20
2022-11-24T16:20:19.410Z,38.70
2022-11-24T16:25:19.382Z,37.00
2022-11-24T16:30:19.339Z,34.90
2022-11-24T16:35:19.227Z,32.20
2022-11-24T16:40:20.120Z,32.10
2022-11-24T16:45:19.813Z,34.20
2022-11-24T16:50:19.221Z,34.10
2022-11-24T16:55:19.462Z,32.00
2022-11-24T17:00:19.370Z,30.90
2022-11-24T17:05:19.425Z,32.30
2022-11-24T17:10:19.458Z,34.60
2022-11-24T17:15:33.562Z,33.80
2022-11-24T17:20:20.925Z,34.80
2022-11-24T17:25:19.096Z,33.40
2022-11-24T17:30:19.303Z,35.80
2022-11-24T17:35:20.033Z,33.80
2022-11-24T17:36:23.757Z,33.80
2022-11-24T17:38:22.478Z,33.80
2022-11-24T17:40:28.324Z,33.60
2022-11-24T17:45:19.288Z,39.00
2022-11-24T17:50:25.160Z,37.50
2022-11-24T17:55:19.379Z,35.30
2022-11-24T18:00:19.817Z,33.80
2022-11-24T18:05:20.444Z,35.40
2022-11-24T18:10:19.040Z,34.00
2022-11-24T18:15:19.187Z,33.60
2022-11-24T18:20:20.209Z,37.00
2022-11-24T18:25:19.031Z,38.90
2022-11-24T18:30:20.209Z,38.30
2022-11-24T18:35:19.907Z,39.40
2022-11-24T18:40:19.089Z,39.30
2022-11-24T18:40:38.774Z,39.30
2022-11-24T18:45:19.002Z,43.30
2022-11-24T18:50:20.631Z,42.90
2022-11-24T18:55:19.210Z,45.20
2022-11-24T19:00:22.418Z,46.40
2022-11-24T19:05:20.256Z,45.80
2022-11-24T19:10:19.068Z,44.80
2022-11-24T19:15:19.382Z,45.10
2022-11-24T19:20:19.369Z,45.30
2022-11-24T19:25:19.499Z,45.60
2022-11-24T19:30:19.120Z,46.20
2022-11-24T19:35:20.176Z,45.00
2022-11-24T19:40:18.958Z,47.10
2022-11-24T19:45:19.258Z,45.70
2022-11-24T19:50:19.774Z,46.00
2022-11-24T19:55:18.948Z,46.20
2022-11-24T20:00:19.393Z,150.00
2022-11-24T20:05:19.487Z,89.90
2022-11-24T20:10:18.947Z,176.80
2022-11-24T20:14:37.142Z,104.10
2022-11-24T20:15:19.620Z,104.10
2022-11-24T20:16:41.505Z,104.10
2022-11-24T20:20:19.214Z,92.90
2022-11-24T20:25:19.549Z,77.30
2022-11-24T20:30:19.451Z,72.50
2022-11-24T20:35:19.238Z,55.00
2022-11-24T20:40:19.521Z,49.90
2022-11-24T20:45:19.710Z,52.80
2022-11-24T20:46:25.528Z,52.80
2022-11-24T20:50:19.049Z,48.50
2022-11-24T20:55:19.251Z,50.90
2022-11-24T21:00:19.086Z,44.20
2022-11-24T21:05:19.556Z,46.90
2022-11-24T21:10:21.530Z,44.40
2022-11-24T21:15:18.895Z,47.80
2022-11-24T21:20:19.129Z,59.60
2022-11-24T21:25:20.602Z,43.00
2022-11-24T21:30:18.933Z,57.70
2022-11-24T21:35:18.921Z,55.60
2022-11-24T21:40:19.301Z,43.20
2022-11-24T21:45:18.897Z,53.50
2022-11-24T21:50:18.908Z,49.90
2022-11-24T21:55:19.607Z,41.60
2022-11-24T22:00:19.811Z,51.70
2022-11-24T22:05:18.902Z,44.90
2022-11-24T22:10:20.123Z,58.10
2022-11-24T22:15:18.844Z,46.20
2022-11-24T22:20:18.949Z,67.70
2022-11-24T22:25:19.851Z,62.80
2022-11-24T22:30:18.802Z,48.10
2022-11-24T22:35:19.009Z,62.10
2022-11-24T22:40:19.674Z,73.40
2022-11-24T22:45:18.797Z,62.80
2022-11-24T22:50:18.872Z,73.10
2022-11-24T22:55:19.762Z,45.00
2022-11-24T23:00:18.836Z,63.90
2022-11-24T23:05:20.813Z,46.40
2022-11-24T23:10:18.938Z,40.00
2022-11-24T23:15:18.848Z,43.40
2022-11-24T23:20:18.805Z,40.30
2022-11-24T23:25:19.217Z,39.70
2022-11-24T23:30:19.125Z,38.40
2022-11-24T23:35:19.070Z,37.90
2022-11-24T23:40:19.572Z,38.70
2022-11-24T23:45:18.769Z,39.00
2022-11-24T23:50:19.130Z,38.20
2022-11-24T23:55:19.234Z,39.50
